Time,TemperatureF,DewpointF,PressureIn,WindDirection,WindDirectionDegrees,WindSpeedMPH,WindSpeedGustMPH,Humidity,HourlyPrecipIn,Conditions,Clouds,dailyrainin,SoftwareType,DateUTC
2015-03-05 00:04:00,21.3,18.0,30.21,NNW,336,0.0,0.0,87,0.00,,,0.00,WeatherCatV1.23B16,2015-03-05 05:04:00,
2015-03-05 00:09:00,21.3,18.0,30.21,ENE,78,0.0,1.0,87,0.00,,,0.00,WeatherCatV1.23B16,2015-03-05 05:09:00,
2015-03-05 00:14:00,21.3,18.0,30.20,North,0,0.0,3.0,87,0.00,,,0.00,WeatherCatV1.23B16,2015-03-05 05:14:00,
2015-03-05 00:19:00,21.3,18.0,30.20,NW,325,0.0,2.0,87,0.00,,,0.00,WeatherCatV1.23B16,2015-03-05 05:19:00,
2015-03-05 00:24:00,21.3,17.8,30.20,NNW,340,1.0,4.0,86,0.00,,,0.00,WeatherCatV1.23B16,2015-03-05 05:24:00,
2015-03-05 00:29:00,21.0,17.5,30.19,NNW,329,0.0,2.0,86,0.00,,,0.00,WeatherCatV1.23B16,2015-03-05 05:29:00,
2015-03-05 00:34:00,20.8,17.0,30.19,NW,321,0.0,5.0,85,0.00,,,0.00,WeatherCatV1.23B16,2015-03-05 05:34:00,
2015-03-05 00:39:00,20.6,16.5,30.19,ENE,67,0.0,4.0,84,0.00,,,0.00,WeatherCatV1.23B16,2015-03-05 05:39:00,
2015-03-05 00:44:00,20.6,16.3,30.20,ENE,74,3.0,5.0,83,0.00,,,0.00,WeatherCatV1.23B16,2015-03-05 05:44:00,
2015-03-05 00:49:00,20.5,15.9,30.20,NW,307,2.0,2.0,82,0.00,,,0.00,WeatherCatV1.23B16,2015-03-05 05:49:00,
2015-03-05 00:54:00,20.5,15.6,30.20,WNW,300,0.0,0.0,81,0.00,,,0.00,WeatherCatV1.23B16,2015-03-05 05:54:00,
2015-03-05 00:59:00,20.6,15.7,30.20,NW,312,0.0,2.0,81,0.00,,,0.00,WeatherCatV1.23B16,2015-03-05 05:59:00,
2015-03-05 01:04:00,20.6,15.7,30.20,NNW,329,0.0,1.0,81,0.00,,,0.00,WeatherCatV1.23B16,2015-03-05 06:04:00,
2015-03-05 01:09:00,20.6,15.7,30.20,WNW,303,2.0,3.0,81,0.00,,,0.00,WeatherCatV1.23B16,2015-03-05 06:09:00,
2015-03-05 01:14:00,20.6,15.4,30.20,East,97,7.0,8.0,80,0.00,,,0.00,WeatherCatV1.23B16,2015-03-05 06:14:00,
2015-03-05 01:19:00,20.6,15.4,30.20,NNW,334,0.0,3.0,80,0.00,,,0.00,WeatherCatV1.23B16,2015-03-05 06:19:00,
2015-03-05 01:25:00,20.6,15.4,30.20,NW,304,0.0,1.0,80,0.00,,,0.00,WeatherCatV1.23B16,2015-03-05 06:25:00,
2015-03-05 01:30:00,20.6,15.1,30.21,NW,309,3.0,4.0,79,0.00,,,0.00,WeatherCatV1.23B16,2015-03-05 06:30:00,
2015-03-05 01:35:00,20.6,15.1,30.21,NW,307,1.0,7.0,79,0.00,,,0.00,WeatherCatV1.23B16,2015-03-05 06:35:00,
2015-03-05 01:40:00,20.5,14.8,30.21,NW,311,1.0,3.0,78,0.00,,,0.00,WeatherCatV1.23B16,2015-03-05 06:40:00,
2015-03-05 01:45:00,20.5,14.5,30.21,NW,310,3.0,3.0,77,0.00,,,0.00,WeatherCatV1.23B16,2015-03-05 06:45:00,
2015-03-05 01:50:00,20.3,13.7,30.21,WNW,296,3.0,7.0,75,0.00,,,0.00,WeatherCatV1.23B16,2015-03-05 06:50:00,
2015-03-05 01:55:00,20.2,13.3,30.21,East,83,0.0,5.0,74,0.00,,,0.00,WeatherCatV1.23B16,2015-03-05 06:55:00,
2015-03-05 02:00:00,20.0,13.1,30.22,NW,312,2.0,3.0,74,0.00,,,0.00,WeatherCatV1.23B16,2015-03-05 07:00:00,
2015-03-05 02:05:00,19.9,12.7,30.22,ENE,70,2.0,6.0,73,0.00,,,0.00,WeatherCatV1.23B16,2015-03-05 07:05:00,
2015-03-05 02:10:00,19.7,11.9,30.22,NW,308,3.0,5.0,71,0.00,,,0.00,WeatherCatV1.23B16,2015-03-05 07:10:00,
2015-03-05 02:15:00,19.4,10.9,30.24,East,90,2.0,6.0,69,0.00,,,0.00,WeatherCatV1.23B16,2015-03-05 07:15:00,
2015-03-05 02:20:00,19.2,10.4,30.24,East,90,5.0,7.0,68,0.00,,,0.00,WeatherCatV1.23B16,2015-03-05 07:20:00,
2015-03-05 02:25:00,19.2,9.1,30.24,ENE,61,0.0,6.0,64,0.00,,,0.00,WeatherCatV1.23B16,2015-03-05 07:25:00,
2015-03-05 02:30:00,19.2,8.7,30.22,East,89,5.0,5.0,63,0.00,,,0.00,WeatherCatV1.23B16,2015-03-05 07:30:00,
2015-03-05 02:35:00,19.2,8.7,30.22,NW,313,1.0,4.0,63,0.00,,,0.00,WeatherCatV1.23B16,2015-03-05 07:35:00,
2015-03-05 02:40:00,19.1,9.3,30.22,NW,317,3.0,5.0,65,0.00,,,0.00,WeatherCatV1.23B16,2015-03-05 07:40:00,
2015-03-05 02:45:00,19.1,9.3,30.22,NNW,339,1.0,2.0,65,0.00,,,0.00,WeatherCatV1.23B16,2015-03-05 07:45:00,
2015-03-05 02:50:00,18.9,9.1,30.22,NW,308,2.0,5.0,65,0.00,,,0.00,WeatherCatV1.23B16,2015-03-05 07:50:00,
2015-03-05 02:55:00,18.9,8.8,30.22,NE,55,1.0,5.0,64,0.00,,,0.00,WeatherCatV1.23B16,2015-03-05 07:55:00,
2015-03-05 03:00:00,18.9,8.8,30.24,WNW,295,1.0,5.0,64,0.00,,,0.00,WeatherCatV1.23B16,2015-03-05 08:00:00,
2015-03-05 03:05:00,18.8,9.0,30.24,NW,319,0.0,3.0,65,0.00,,,0.00,WeatherCatV1.23B16,2015-03-05 08:05:00,
2015-03-05 03:10:00,18.8,9.0,30.24,East,86,3.0,3.0,65,0.00,,,0.00,WeatherCatV1.23B16,2015-03-05 08:10:00,
2015-03-05 03:15:00,18.8,9.0,30.24,East,82,5.0,5.0,65,0.00,,,0.00,WeatherCatV1.23B16,2015-03-05 08:15:00,
2015-03-05 03:20:00,18.8,9.4,30.24,ENE,76,1.0,4.0,66,0.00,,,0.00,WeatherCatV1.23B16,2015-03-05 08:20:00,
2015-03-05 03:25:00,18.6,9.2,30.24,NW,313,0.0,0.0,66,0.00,,,0.00,WeatherCatV1.23B16,2015-03-05 08:25:00,
2015-03-05 03:30:00,18.6,9.5,30.24,NW,315,3.0,4.0,67,0.00,,,0.00,WeatherCatV1.23B16,2015-03-05 08:30:00,
2015-03-05 03:35:00,18.6,9.5,30.24,NW,308,0.0,4.0,67,0.00,,,0.00,WeatherCatV1.23B16,2015-03-05 08:35:00,
2015-03-05 03:40:00,18.4,9.6,30.24,NW,308,0.0,1.0,68,0.00,,,0.00,WeatherCatV1.23B16,2015-03-05 08:40:00,
2015-03-05 03:45:00,18.4,10.0,30.25,East,93,0.0,1.0,69,0.00,,,0.00,WeatherCatV1.23B16,2015-03-05 08:45:00,
2015-03-05 03:50:00,18.4,10.3,30.25,East,80,0.0,2.0,70,0.00,,,0.00,WeatherCatV1.23B16,2015-03-05 08:50:00,
2015-03-05 03:55:00,18.3,10.8,30.25,NW,315,0.0,3.0,72,0.00,,,0.00,WeatherCatV1.23B16,2015-03-05 08:55:00,
2015-03-05 04:00:00,18.1,10.9,30.24,ENE,73,4.0,7.0,73,0.00,,,0.00,WeatherCatV1.23B16,2015-03-05 09:00:00,
2015-03-05 04:05:00,17.7,10.5,30.24,East,91,5.0,8.0,73,0.00,,,0.00,WeatherCatV1.23B16,2015-03-05 09:05:00,
2015-03-05 04:10:00,17.3,10.2,30.24,WNW,303,2.0,6.0,73,0.00,,,0.00,WeatherCatV1.23B16,2015-03-05 09:10:00,
2015-03-05 04:15:00,17.2,10.1,30.24,NW,311,3.0,6.0,73,0.00,,,0.00,WeatherCatV1.23B16,2015-03-05 09:15:00,
2015-03-05 04:20:00,17.0,9.6,30.24,East,79,1.0,6.0,72,0.00,,,0.00,WeatherCatV1.23B16,2015-03-05 09:20:00,
2015-03-05 04:25:00,17.0,9.6,30.24,NNW,341,1.0,8.0,72,0.00,,,0.00,WeatherCatV1.23B16,2015-03-05 09:25:00,
2015-03-05 04:30:00,17.0,9.9,30.24,East,93,2.0,4.0,73,0.00,,,0.00,WeatherCatV1.23B16,2015-03-05 09:30:00,
2015-03-05 04:35:00,17.0,9.9,30.24,ENE,78,2.0,4.0,73,0.00,,,0.00,WeatherCatV1.23B16,2015-03-05 09:35:00,
2015-03-05 04:40:00,17.0,9.9,30.24,ENE,65,0.0,1.0,73,0.00,,,0.00,WeatherCatV1.23B16,2015-03-05 09:40:00,
2015-03-05 04:45:00,17.0,9.6,30.25,East,80,2.0,2.0,72,0.00,,,0.00,WeatherCatV1.23B16,2015-03-05 09:45:00,
2015-03-05 04:50:00,17.0,9.6,30.25,East,82,0.0,0.0,72,0.00,,,0.00,WeatherCatV1.23B16,2015-03-05 09:50:00,
2015-03-05 04:55:00,17.2,9.8,30.25,ENE,68,0.0,3.0,72,0.00,,,0.00,WeatherCatV1.23B16,2015-03-05 09:55:00,
2015-03-05 05:00:00,17.2,9.4,30.25,ENE,76,1.0,4.0,71,0.00,,,0.00,WeatherCatV1.23B16,2015-03-05 10:00:00,
2015-03-05 05:05:00,17.3,9.5,30.25,ENE,74,0.0,0.0,71,0.00,,,0.00,WeatherCatV1.23B16,2015-03-05 10:05:00,
2015-03-05 05:10:00,17.3,9.2,30.25,ENE,69,0.0,0.0,70,0.00,,,0.00,WeatherCatV1.23B16,2015-03-05 10:10:00,
2015-03-05 05:15:00,17.5,9.4,30.26,ENE,69,0.0,0.0,70,0.00,,,0.00,WeatherCatV1.23B16,2015-03-05 10:15:00,
2015-03-05 05:20:00,17.5,9.1,30.26,ENE,67,0.0,1.0,69,0.00,,,0.00,WeatherCatV1.23B16,2015-03-05 10:20:00,
2015-03-05 05:25:00,17.7,9.0,30.26,ENE,68,1.0,2.0,68,0.00,,,0.00,WeatherCatV1.23B16,2015-03-05 10:25:00,
2015-03-05 05:30:00,17.8,8.7,30.26,ESE,119,0.0,5.0,67,0.00,,,0.00,WeatherCatV1.23B16,2015-03-05 10:30:00,
2015-03-05 05:35:00,17.8,8.4,30.26,NNW,342,1.0,1.0,66,0.00,,,0.00,WeatherCatV1.23B16,2015-03-05 10:35:00,
2015-03-05 05:40:00,18.0,8.6,30.26,NW,323,3.0,3.0,66,0.00,,,0.00,WeatherCatV1.23B16,2015-03-05 10:40:00,
2015-03-05 05:45:00,18.0,8.6,30.26,NW,320,0.0,3.0,66,0.00,,,0.00,WeatherCatV1.23B16,2015-03-05 10:45:00,
2015-03-05 05:50:00,18.0,8.6,30.26,ENE,59,0.0,2.0,66,0.00,,,0.00,WeatherCatV1.23B16,2015-03-05 10:50:00,
2015-03-05 05:55:00,18.1,8.4,30.26,NW,308,1.0,2.0,65,0.00,,,0.00,WeatherCatV1.23B16,2015-03-05 10:55:00,
2015-03-05 06:00:00,18.1,8.4,30.27,East,92,0.0,2.0,65,0.00,,,0.00,WeatherCatV1.23B16,2015-03-05 11:00:00,
2015-03-05 06:05:00,18.0,8.9,30.27,NW,305,4.0,4.0,67,0.00,,,0.00,WeatherCatV1.23B16,2015-03-05 11:05:00,
2015-03-05 06:10:00,17.8,9.1,30.27,NW,317,2.0,3.0,68,0.00,,,0.00,WeatherCatV1.23B16,2015-03-05 11:10:00,
2015-03-05 06:15:00,17.7,9.6,30.26,NE,47,0.0,5.0,70,0.00,,,0.00,WeatherCatV1.23B16,2015-03-05 11:15:00,
2015-03-05 06:20:00,17.5,9.7,30.26,North,351,0.0,3.0,71,0.00,,,0.00,WeatherCatV1.23B16,2015-03-05 11:20:00,
2015-03-05 06:25:00,17.3,10.2,30.26,NE,55,0.0,1.0,73,0.00,,,0.00,WeatherCatV1.23B16,2015-03-05 11:25:00,
2015-03-05 06:30:00,17.3,10.5,30.28,NW,309,0.0,2.0,74,0.00,,,0.00,WeatherCatV1.23B16,2015-03-05 11:30:00,
2015-03-05 06:35:00,17.2,10.7,30.28,WNW,292,0.0,2.0,75,0.00,,,0.00,WeatherCatV1.23B16,2015-03-05 11:35:00,
2015-03-05 06:40:00,17.2,10.7,30.28,NW,314,2.0,3.0,75,0.00,,,0.00,WeatherCatV1.23B16,2015-03-05 11:40:00,
2015-03-05 06:45:00,17.2,11.0,30.28,ENE,76,1.0,2.0,76,0.00,,,0.00,WeatherCatV1.23B16,2015-03-05 11:45:00,
2015-03-05 06:50:00,17.2,11.0,30.28,ENE,76,0.0,0.0,76,0.00,,,0.00,WeatherCatV1.23B16,2015-03-05 11:50:00,
2015-03-05 06:55:00,17.2,11.2,30.28,East,82,0.0,0.0,77,0.00,,,0.00,WeatherCatV1.23B16,2015-03-05 11:55:00,
2015-03-05 07:00:00,17.2,11.2,30.29,East,82,0.0,0.0,77,0.00,,,0.00,WeatherCatV1.23B16,2015-03-05 12:00:00,
2015-03-05 07:05:00,17.2,11.5,30.29,East,82,0.0,0.0,78,0.00,,,0.00,WeatherCatV1.23B16,2015-03-05 12:05:00,
2015-03-05 07:10:00,17.2,11.5,30.29,ENE,76,0.0,0.0,78,0.00,,,0.00,WeatherCatV1.23B16,2015-03-05 12:10:00,
2015-03-05 07:15:00,17.2,11.5,30.29,ENE,76,0.0,0.0,78,0.00,,,0.00,WeatherCatV1.23B16,2015-03-05 12:15:00,
2015-03-05 07:20:00,17.2,11.5,30.29,ENE,76,0.0,0.0,78,0.00,,,0.00,WeatherCatV1.23B16,2015-03-05 12:20:00,
2015-03-05 07:25:00,17.2,11.5,30.29,East,80,0.0,0.0,78,0.00,,,0.00,WeatherCatV1.23B16,2015-03-05 12:25:00,
2015-03-05 07:30:00,17.3,11.4,30.29,East,80,0.0,0.0,77,0.00,,,0.00,WeatherCatV1.23B16,2015-03-05 12:30:00,
2015-03-05 07:35:00,17.3,11.4,30.29,East,90,1.0,3.0,77,0.00,,,0.00,WeatherCatV1.23B16,2015-03-05 12:35:00,
2015-03-05 07:40:00,17.3,10.2,30.29,WNW,300,1.0,1.0,73,0.00,,,0.00,WeatherCatV1.23B16,2015-03-05 12:40:00,
2015-03-05 07:45:00,17.5,9.1,30.28,NNW,333,0.0,4.0,69,0.00,,,0.00,WeatherCatV1.23B16,2015-03-05 12:45:00,
2015-03-05 07:50:00,17.7,8.6,30.28,ESE,103,3.0,5.0,67,0.00,,,0.00,WeatherCatV1.23B16,2015-03-05 12:50:00,
2015-03-05 07:55:00,17.8,8.1,30.28,WNW,302,0.0,5.0,65,0.00,,,0.00,WeatherCatV1.23B16,2015-03-05 12:55:00,
2015-03-05 08:00:00,17.8,7.7,30.30,NNW,348,0.0,3.0,64,0.00,,,0.00,WeatherCatV1.23B16,2015-03-05 13:00:00,
2015-03-05 08:05:00,17.8,7.0,30.30,East,92,0.0,5.0,62,0.00,,,0.00,WeatherCatV1.23B16,2015-03-05 13:05:00,
2015-03-05 08:10:00,18.0,6.8,30.30,ENE,76,0.0,0.0,61,0.00,,,0.00,WeatherCatV1.23B16,2015-03-05 13:10:00,
2015-03-05 08:15:00,18.0,7.2,30.29,East,79,0.0,1.0,62,0.00,,,0.00,WeatherCatV1.23B16,2015-03-05 13:15:00,
2015-03-05 08:20:00,18.1,6.9,30.29,East,94,0.0,2.0,61,0.00,,,0.00,WeatherCatV1.23B16,2015-03-05 13:20:00,
2015-03-05 08:25:00,18.3,7.1,30.29,NW,307,0.0,0.0,61,0.00,,,0.00,WeatherCatV1.23B16,2015-03-05 13:25:00,
2015-03-05 08:30:00,18.3,7.1,30.31,NW,306,3.0,3.0,61,0.00,,,0.00,WeatherCatV1.23B16,2015-03-05 13:30:00,
2015-03-05 08:35:00,18.1,6.9,30.31,NW,304,0.0,3.0,61,0.00,,,0.00,WeatherCatV1.23B16,2015-03-05 13:35:00,
2015-03-05 08:40:00,18.1,6.9,30.31,ENE,71,0.0,1.0,61,0.00,,,0.00,WeatherCatV1.23B16,2015-03-05 13:40:00,
2015-03-05 08:45:00,18.3,7.5,30.33,NW,313,1.0,1.0,62,0.00,,,0.00,WeatherCatV1.23B16,2015-03-05 13:45:00,
2015-03-05 08:50:00,18.3,7.1,30.33,NW,306,2.0,3.0,61,0.00,,,0.00,WeatherCatV1.23B16,2015-03-05 13:50:00,
2015-03-05 08:55:00,18.3,7.5,30.33,NE,55,0.0,2.0,62,0.00,,,0.00,WeatherCatV1.23B16,2015-03-05 13:55:00,
2015-03-05 09:00:00,18.4,7.6,30.36,NW,308,0.0,2.0,62,0.00,,,0.00,WeatherCatV1.23B16,2015-03-05 14:00:00,
2015-03-05 09:05:00,18.4,7.6,30.36,North,5,0.0,4.0,62,0.00,,,0.00,WeatherCatV1.23B16,2015-03-05 14:05:00,
2015-03-05 09:10:00,18.4,7.2,30.36,East,96,0.0,3.0,61,0.00,,,0.00,WeatherCatV1.23B16,2015-03-05 14:10:00,
2015-03-05 09:15:00,18.6,7.4,30.36,ESE,106,1.0,4.0,61,0.00,,,0.00,WeatherCatV1.23B16,2015-03-05 14:15:00,
2015-03-05 09:20:00,18.6,6.7,30.36,NW,306,1.0,5.0,59,0.00,,,0.00,WeatherCatV1.23B16,2015-03-05 14:20:00,
2015-03-05 09:25:00,18.6,7.1,30.36,WNW,300,0.0,2.0,60,0.00,,,0.00,WeatherCatV1.23B16,2015-03-05 14:25:00,
2015-03-05 09:30:00,18.6,7.1,30.34,East,85,0.0,4.0,60,0.00,,,0.00,WeatherCatV1.23B16,2015-03-05 14:30:00,
2015-03-05 09:35:00,18.4,6.5,30.34,East,79,2.0,4.0,59,0.00,,,0.00,WeatherCatV1.23B16,2015-03-05 14:35:00,
2015-03-05 09:40:00,18.6,7.1,30.34,NW,310,2.0,3.0,60,0.00,,,0.00,WeatherCatV1.23B16,2015-03-05 14:40:00,
2015-03-05 09:45:00,18.6,6.7,30.33,NW,322,0.0,5.0,59,0.00,,,0.00,WeatherCatV1.23B16,2015-03-05 14:45:00,
2015-03-05 09:50:00,18.4,5.4,30.33,NW,318,1.0,5.0,56,0.00,,,0.00,WeatherCatV1.23B16,2015-03-05 14:50:00,
2015-03-05 09:55:00,18.3,4.9,30.33,East,81,0.0,2.0,55,0.00,,,0.00,WeatherCatV1.23B16,2015-03-05 14:55:00,
2015-03-05 10:00:00,18.4,5.0,30.33,NW,308,0.0,2.0,55,0.00,,,0.00,WeatherCatV1.23B16,2015-03-05 15:00:00,
2015-03-05 10:05:00,18.4,4.6,30.33,NW,306,0.0,3.0,54,0.00,,,0.00,WeatherCatV1.23B16,2015-03-05 15:05:00,
2015-03-05 10:10:00,18.4,5.0,30.33,NW,307,0.0,3.0,55,0.00,,,0.00,WeatherCatV1.23B16,2015-03-05 15:10:00,
2015-03-05 10:15:00,18.4,4.6,30.36,ESE,103,0.0,2.0,54,0.00,,,0.00,WeatherCatV1.23B16,2015-03-05 15:15:00,
2015-03-05 10:20:00,18.4,4.6,30.36,NW,322,0.0,3.0,54,0.00,,,0.00,WeatherCatV1.23B16,2015-03-05 15:20:00,
2015-03-05 10:25:00,18.6,5.2,30.36,NW,312,2.0,7.0,55,0.00,,,0.00,WeatherCatV1.23B16,2015-03-05 15:25:00,
2015-03-05 10:30:00,18.4,5.0,30.35,ENE,78,0.0,3.0,55,0.00,,,0.00,WeatherCatV1.23B16,2015-03-05 15:30:00,
2015-03-05 10:35:00,18.4,4.2,30.35,ENE,74,0.0,5.0,53,0.00,,,0.00,WeatherCatV1.23B16,2015-03-05 15:35:00,
2015-03-05 10:40:00,18.4,3.8,30.35,NW,304,0.0,5.0,52,0.00,,,0.00,WeatherCatV1.23B16,2015-03-05 15:40:00,
2015-03-05 10:45:00,18.4,3.8,30.35,WNW,302,2.0,3.0,52,0.00,,,0.00,WeatherCatV1.23B16,2015-03-05 15:45:00,
2015-03-05 10:50:00,18.6,3.5,30.35,WNW,303,1.0,6.0,51,0.00,,,0.00,WeatherCatV1.23B16,2015-03-05 15:50:00,
2015-03-05 10:55:00,18.5,4.3,30.35,NW,315,1.0,6.0,53,0.00,,,0.00,WeatherCatV1.23B16,2015-03-05 15:55:00,
2015-03-05 11:00:00,18.5,4.3,30.35,NW,315,1.0,6.0,53,0.00,,,0.00,WeatherCatV1.23B16,2015-03-05 16:00:00,
2015-03-05 11:05:00,18.7,4.0,30.35,NW,315,2.0,6.0,52,0.00,,,0.00,WeatherCatV1.23B16,2015-03-05 16:05:00,
2015-03-05 11:10:00,18.7,4.0,30.35,NW,315,2.0,6.0,52,0.00,,,0.00,WeatherCatV1.23B16,2015-03-05 16:10:00,
2015-03-05 11:15:00,18.9,4.2,30.35,NW,315,3.0,8.0,52,0.00,,,0.00,WeatherCatV1.23B16,2015-03-05 16:15:00,
2015-03-05 11:20:00,18.9,4.2,30.35,NW,315,3.0,8.0,52,0.00,,,0.00,WeatherCatV1.23B16,2015-03-05 16:20:00,
2015-03-05 11:25:00,19.2,4.9,30.35,NW,315,1.0,6.0,53,0.00,,,0.00,WeatherCatV1.23B16,2015-03-05 16:25:00,
2015-03-05 11:30:00,19.2,4.9,30.35,NW,315,1.0,6.0,53,0.00,,,0.00,WeatherCatV1.23B16,2015-03-05 16:30:00,
2015-03-05 11:35:00,19.7,4.1,30.36,NW,315,2.0,5.0,50,0.00,,,0.00,WeatherCatV1.23B16,2015-03-05 16:35:00,
2015-03-05 11:40:00,19.7,4.1,30.36,NW,315,2.0,5.0,50,0.00,,,0.00,WeatherCatV1.23B16,2015-03-05 16:40:00,
2015-03-05 11:45:00,19.9,4.3,30.36,NW,315,2.0,7.0,50,0.00,,,0.00,WeatherCatV1.23B16,2015-03-05 16:45:00,
2015-03-05 11:50:00,19.9,4.3,30.36,NW,315,2.0,7.0,50,0.00,,,0.00,WeatherCatV1.23B16,2015-03-05 16:50:00,
2015-03-05 11:55:00,20.0,4.4,30.36,NW,315,2.0,8.0,50,0.00,,,0.00,WeatherCatV1.23B16,2015-03-05 16:55:00,
2015-03-05 12:00:00,20.0,4.4,30.36,NW,315,2.0,8.0,50,0.00,,,0.00,WeatherCatV1.23B16,2015-03-05 17:00:00,
2015-03-05 12:05:00,20.3,4.7,30.37,East,90,1.0,6.0,50,0.00,,,0.00,WeatherCatV1.23B16,2015-03-05 17:05:00,
2015-03-05 12:10:00,20.3,4.7,30.37,East,90,1.0,6.0,50,0.00,,,0.00,WeatherCatV1.23B16,2015-03-05 17:10:00,
2015-03-05 12:15:00,21.0,4.4,30.37,NW,315,2.0,8.0,48,0.00,,,0.00,WeatherCatV1.23B16,2015-03-05 17:15:00,
2015-03-05 12:20:00,21.0,4.4,30.37,NW,315,2.0,8.0,48,0.00,,,0.00,WeatherCatV1.23B16,2015-03-05 17:20:00,
2015-03-05 12:25:00,20.8,4.7,30.38,NW,315,2.0,6.0,49,0.00,,,0.00,WeatherCatV1.23B16,2015-03-05 17:25:00,
2015-03-05 12:30:00,20.8,4.7,30.38,NW,315,2.0,6.0,49,0.00,,,0.00,WeatherCatV1.23B16,2015-03-05 17:30:00,
2015-03-05 12:35:00,20.6,4.9,30.36,NW,315,2.0,8.0,50,0.00,,,0.00,WeatherCatV1.23B16,2015-03-05 17:35:00,
2015-03-05 12:40:00,20.6,4.9,30.36,NW,315,2.0,8.0,50,0.00,,,0.00,WeatherCatV1.23B16,2015-03-05 17:40:00,
2015-03-05 12:53:00,20.9,5.2,30.36,NW,315,2.0,6.0,50,0.00,,,0.00,WeatherCatV1.23B16,2015-03-05 17:53:00,
2015-03-05 12:59:00,21.0,4.4,30.38,WNW,302,1.0,3.0,48,0.00,,,0.00,WeatherCatV1.23B16,2015-03-05 17:59:00,
2015-03-05 13:04:00,21.1,5.0,30.38,NW,319,3.0,3.0,49,0.00,,,0.00,WeatherCatV1.23B16,2015-03-05 18:04:00,
2015-03-05 13:09:00,21.1,4.1,30.38,NW,311,0.0,6.0,47,0.00,,,0.00,WeatherCatV1.23B16,2015-03-05 18:09:00,
2015-03-05 13:14:00,21.0,4.0,30.38,NW,313,4.0,5.0,47,0.00,,,0.00,WeatherCatV1.23B16,2015-03-05 18:14:00,
2015-03-05 13:19:00,21.1,4.5,30.38,NW,318,0.0,4.0,48,0.00,,,0.00,WeatherCatV1.23B16,2015-03-05 18:19:00,
2015-03-05 13:24:00,21.3,4.7,30.38,NW,307,4.0,4.0,48,0.00,,,0.00,WeatherCatV1.23B16,2015-03-05 18:24:00,
2015-03-05 13:29:00,21.4,4.3,30.38,WNW,290,3.0,6.0,47,0.00,,,0.00,WeatherCatV1.23B16,2015-03-05 18:29:00,
2015-03-05 13:34:00,21.3,4.2,30.38,NW,313,3.0,5.0,47,0.00,,,0.00,WeatherCatV1.23B16,2015-03-05 18:34:00,
2015-03-05 13:39:00,21.6,5.0,30.38,NNW,340,3.0,4.0,48,0.00,,,0.00,WeatherCatV1.23B16,2015-03-05 18:39:00,
2015-03-05 13:44:00,21.3,3.8,30.38,NNW,327,3.0,4.0,46,0.00,,,0.00,WeatherCatV1.23B16,2015-03-05 18:44:00,
2015-03-05 13:49:00,21.4,4.3,30.38,NW,306,0.0,4.0,47,0.00,,,0.00,WeatherCatV1.23B16,2015-03-05 18:49:00,
2015-03-05 13:54:00,22.2,5.1,30.38,NW,310,4.0,7.0,47,0.00,,,0.00,WeatherCatV1.23B16,2015-03-05 18:54:00,
2015-03-05 13:59:00,22.4,5.3,30.38,NW,309,2.0,5.0,47,0.00,,,0.00,WeatherCatV1.23B16,2015-03-05 18:59:00,
2015-03-05 14:04:00,22.4,4.3,30.38,WNW,295,3.0,8.0,45,0.00,,,0.00,WeatherCatV1.23B16,2015-03-05 19:04:00,
2015-03-05 14:09:00,22.4,4.3,30.38,NW,306,0.0,5.0,45,0.00,,,0.00,WeatherCatV1.23B16,2015-03-05 19:09:00,
2015-03-05 14:14:00,22.4,4.8,30.38,NW,304,1.0,8.0,46,0.00,,,0.00,WeatherCatV1.23B16,2015-03-05 19:14:00,
2015-03-05 14:19:00,22.4,4.8,30.38,NW,306,4.0,4.0,46,0.00,,,0.00,WeatherCatV1.23B16,2015-03-05 19:19:00,
2015-03-05 14:24:00,23.0,5.3,30.38,NW,304,0.0,6.0,46,0.00,,,0.00,WeatherCatV1.23B16,2015-03-05 19:24:00,
2015-03-05 14:29:00,23.0,4.4,30.38,NW,305,5.0,10.0,44,0.00,,,0.00,WeatherCatV1.23B16,2015-03-05 19:29:00,
2015-03-05 14:34:00,22.9,2.8,30.38,WNW,303,9.0,9.0,41,0.00,,,0.00,WeatherCatV1.23B16,2015-03-05 19:34:00,
2015-03-05 14:39:00,22.7,4.1,30.38,WNW,284,4.0,8.0,44,0.00,,,0.00,WeatherCatV1.23B16,2015-03-05 19:39:00,
2015-03-05 14:44:00,23.0,4.9,30.39,NW,314,0.0,6.0,45,0.00,,,0.00,WeatherCatV1.23B16,2015-03-05 19:44:00,
2015-03-05 14:49:00,22.9,3.3,30.39,NW,311,4.0,10.0,42,0.00,,,0.00,WeatherCatV1.23B16,2015-03-05 19:49:00,
2015-03-05 14:54:00,22.9,4.3,30.39,WSW,237,1.0,5.0,44,0.00,,,0.00,WeatherCatV1.23B16,2015-03-05 19:54:00,
2015-03-05 14:59:00,23.0,3.4,30.39,NW,309,1.0,6.0,42,0.00,,,0.00,WeatherCatV1.23B16,2015-03-05 19:59:00,
2015-03-05 15:04:00,23.0,4.9,30.39,NW,306,3.0,5.0,45,0.00,,,0.00,WeatherCatV1.23B16,2015-03-05 20:04:00,
2015-03-05 15:09:00,23.0,4.4,30.39,NNW,333,2.0,10.0,44,0.00,,,0.00,WeatherCatV1.23B16,2015-03-05 20:09:00,
2015-03-05 15:14:00,23.2,5.1,30.39,NW,306,3.0,5.0,45,0.00,,,0.00,WeatherCatV1.23B16,2015-03-05 20:14:00,
2015-03-05 15:19:00,23.2,4.6,30.39,NW,311,5.0,5.0,44,0.00,,,0.00,WeatherCatV1.23B16,2015-03-05 20:19:00,
2015-03-05 15:24:00,23.0,4.4,30.39,WNW,298,2.0,5.0,44,0.00,,,0.00,WeatherCatV1.23B16,2015-03-05 20:24:00,
2015-03-05 15:29:00,23.2,5.1,30.40,North,0,3.0,3.0,45,0.00,,,0.00,WeatherCatV1.23B16,2015-03-05 20:29:00,
2015-03-05 15:34:00,23.2,5.1,30.40,NW,314,0.0,7.0,45,0.00,,,0.00,WeatherCatV1.23B16,2015-03-05 20:34:00,
2015-03-05 15:39:00,23.5,5.8,30.40,NW,311,6.0,6.0,46,0.00,,,0.00,WeatherCatV1.23B16,2015-03-05 20:39:00,
2015-03-05 15:44:00,23.5,4.8,30.40,NW,304,0.0,10.0,44,0.00,,,0.00,WeatherCatV1.23B16,2015-03-05 20:44:00,
2015-03-05 15:49:00,23.3,5.6,30.40,East,90,5.0,5.0,46,0.00,,,0.00,WeatherCatV1.23B16,2015-03-05 20:49:00,
2015-03-05 15:54:00,23.3,4.7,30.40,NW,308,2.0,4.0,44,0.00,,,0.00,WeatherCatV1.23B16,2015-03-05 20:54:00,
2015-03-05 15:59:00,23.8,5.6,30.42,ENE,59,3.0,4.0,45,0.00,,,0.00,WeatherCatV1.23B16,2015-03-05 20:59:00,
2015-03-05 16:04:00,23.6,4.9,30.42,NW,325,3.0,6.0,44,0.00,,,0.00,WeatherCatV1.23B16,2015-03-05 21:04:00,
2015-03-05 16:09:00,23.5,4.8,30.42,West,272,4.0,6.0,44,0.00,,,0.00,WeatherCatV1.23B16,2015-03-05 21:09:00,
2015-03-05 16:14:00,23.5,5.3,30.43,ENE,74,4.0,5.0,45,0.00,,,0.00,WeatherCatV1.23B16,2015-03-05 21:14:00,
2015-03-05 16:19:00,23.6,5.4,30.43,NW,321,3.0,4.0,45,0.00,,,0.00,WeatherCatV1.23B16,2015-03-05 21:19:00,
2015-03-05 16:24:00,23.8,6.1,30.43,WNW,295,2.0,3.0,46,0.00,,,0.00,WeatherCatV1.23B16,2015-03-05 21:24:00,
2015-03-05 16:29:00,23.9,6.6,30.43,NW,319,0.0,4.0,47,0.00,,,0.01,WeatherCatV1.23B16,2015-03-05 21:29:00,